Hauptseite
METAR-TAF:

METAR-TAF

Flughäfen :

Rarotonga, Cookinseln

Flughafen Rarotonga

Breite: 21-12S, Länge: 159-49W, Höhe: 7 m

Beobachtung

Neuester Wetterbericht von vor 50 Minuten, um 15:00 UTC
Wind 2 kt aus Ost/Südost
Temperatur 22°C
Luftfeuchtigkeit 88%
Luftdruck 1014 hPa
Sichtweite 10 km oder mehr
Aufgelockert bewölkt in der Höhe von 1600 ft
Schauer in der Nähe

METAR: NCRG 271500Z 11002KT 9999 VCSH SCT016 22/20 Q1014 RMK DEW

Zeit: 05:50 (15:50 UTC)

Prognose

Neuester Wetterbericht von vor 4 Stunden und 23 Minuten, um 11:27 UTC
Gültige Prognose vom 27 um 12 UTC bis 28 um 12 UTC
Wind 5 kt aus Süd/Südwest
Sichtweite 10 km oder mehr
Leicht bewölkt in der Höhe von 2000 ft
Aufgelockert bewölkt in der Höhe von 4500 ft

TAF: NCRG 271127Z 2712/2812 20005KT 9999 FEW020 SCT045

Wetterbeobachtungen und Prognosen von mehr als 4000 Flughäfen (METAR und TAF Bericht).

Die verfügbaren Stationen werden durch gelbe und rote Markierungen auf der Karte dargestellt.

Führen Sie die Maus auf sie, um den Namen der Station zu sehen.

Darauf klicken, um die Beobachtung von Wetterbeobachtungen und Prognosen zu sehen.

Um die Karte zu ändern : klicken Sie auf den grünen Tasten mit einem schwarzen Kreuz Zum Vergrößern, auf den grünen Button mit einem Gedankenstrich zu verkleinern, oder auf die grünen Pfeile für benachbarte Karten.


METAR-TAF: